createdAt,value
2023-05-12T00:00:10.021Z,0
2023-05-12T00:01:26.304Z,0
2023-05-12T00:02:41.622Z,0
2023-05-12T00:03:57.913Z,0
2023-05-12T00:05:14.211Z,0
2023-05-12T00:06:30.498Z,0
2023-05-12T00:07:46.803Z,0
2023-05-12T00:09:03.105Z,0
2023-05-12T00:10:19.393Z,0
2023-05-12T00:11:35.678Z,0
2023-05-12T00:12:51.969Z,0
2023-05-12T00:14:08.255Z,0
2023-05-12T00:15:24.561Z,0
2023-05-12T00:16:40.859Z,0
2023-05-12T00:17:57.145Z,0
2023-05-12T00:19:12.459Z,0
2023-05-12T00:20:28.756Z,0
2023-05-12T00:21:45.060Z,0
2023-05-12T00:23:01.341Z,0
2023-05-12T00:24:17.628Z,0
2023-05-12T00:25:33.932Z,0
2023-05-12T00:26:50.214Z,0
2023-05-12T00:28:06.523Z,0
2023-05-12T00:29:22.811Z,0
2023-05-12T00:30:39.113Z,0
2023-05-12T00:31:55.410Z,0
2023-05-12T00:33:11.683Z,0
2023-05-12T00:34:27.991Z,0
2023-05-12T00:35:43.296Z,0
2023-05-12T00:36:59.610Z,0
2023-05-12T00:38:15.894Z,0
2023-05-12T00:39:32.174Z,0
2023-05-12T00:40:48.485Z,0
2023-05-12T00:42:04.774Z,0
2023-05-12T00:43:21.062Z,0
2023-05-12T00:44:37.363Z,0
2023-05-12T00:45:53.658Z,0
2023-05-12T00:47:09.958Z,0
2023-05-12T00:48:26.251Z,0
2023-05-12T00:49:42.541Z,0
2023-05-12T00:50:58.831Z,0
2023-05-12T00:52:14.141Z,0
2023-05-12T00:53:30.443Z,0
2023-05-12T00:54:46.745Z,0
2023-05-12T00:56:03.031Z,0
2023-05-12T00:57:19.319Z,0
2023-05-12T00:58:35.599Z,0
2023-05-12T00:59:51.914Z,0
2023-05-12T01:01:08.197Z,0
2023-05-12T01:02:24.509Z,0
2023-05-12T01:03:40.786Z,0
2023-05-12T01:04:57.070Z,0
2023-05-12T01:06:13.370Z,0
2023-05-12T01:07:29.686Z,0
2023-05-12T01:08:44.980Z,0
2023-05-12T01:10:01.274Z,0
2023-05-12T01:11:17.586Z,0
2023-05-12T01:12:33.865Z,0
2023-05-12T01:13:50.145Z,0
2023-05-12T01:15:06.449Z,0
2023-05-12T01:16:21.774Z,0
2023-05-12T01:17:38.066Z,0
2023-05-12T01:18:54.365Z,0
2023-05-12T01:20:10.650Z,0
2023-05-12T01:21:26.948Z,0
2023-05-12T01:22:43.244Z,0
2023-05-12T01:23:59.542Z,0
2023-05-12T01:25:15.839Z,0
2023-05-12T01:26:32.123Z,0
2023-05-12T01:27:48.419Z,0
2023-05-12T01:29:04.703Z,0
2023-05-12T01:30:21.004Z,0
2023-05-12T01:31:37.290Z,0
2023-05-12T01:32:52.614Z,0
2023-05-12T01:34:08.918Z,0
2023-05-12T01:35:25.213Z,0
2023-05-12T01:36:41.493Z,0
2023-05-12T01:37:57.797Z,0
2023-05-12T01:39:14.089Z,0
2023-05-12T01:40:30.370Z,0
2023-05-12T01:41:46.666Z,0
2023-05-12T01:43:02.949Z,0
2023-05-12T01:44:19.249Z,0
2023-05-12T01:45:35.555Z,0
2023-05-12T01:46:51.844Z,0
2023-05-12T01:48:08.156Z,0
2023-05-12T01:49:23.456Z,0
2023-05-12T01:50:39.749Z,0
2023-05-12T01:51:56.036Z,0
2023-05-12T01:53:12.342Z,0
2023-05-12T01:54:28.639Z,0
2023-05-12T01:55:44.910Z,0
2023-05-12T01:57:01.216Z,0
2023-05-12T01:58:17.511Z,0
2023-05-12T01:59:33.796Z,0
2023-05-12T02:00:50.096Z,0
2023-05-12T02:02:06.404Z,0
2023-05-12T02:03:22.703Z,0
2023-05-12T02:04:38.980Z,0
2023-05-12T02:05:54.298Z,0
2023-05-12T02:07:10.581Z,0
2023-05-12T02:08:26.840Z,0
2023-05-12T02:09:43.142Z,0
2023-05-12T02:10:59.430Z,0
2023-05-12T02:12:15.740Z,0
2023-05-12T02:13:32.032Z,0
2023-05-12T02:14:48.353Z,0
2023-05-12T02:16:04.619Z,0
2023-05-12T02:17:20.901Z,0
2023-05-12T02:18:37.213Z,0
2023-05-12T02:19:53.491Z,0
2023-05-12T02:21:09.823Z,0
2023-05-12T02:22:25.122Z,0
2023-05-12T02:23:41.400Z,0
2023-05-12T02:24:57.683Z,0
2023-05-12T02:26:13.981Z,0
2023-05-12T02:27:30.279Z,0
2023-05-12T02:28:46.575Z,0
2023-05-12T02:30:02.861Z,0
2023-05-12T02:31:19.157Z,0
2023-05-12T02:32:35.447Z,0
2023-05-12T02:33:51.775Z,0
2023-05-12T02:35:08.038Z,0
2023-05-12T02:36:24.347Z,0
2023-05-12T02:37:40.651Z,0
2023-05-12T02:38:55.943Z,0
2023-05-12T02:40:12.246Z,0
2023-05-12T02:41:28.529Z,0
2023-05-12T02:42:44.832Z,0
2023-05-12T02:44:01.113Z,0
2023-05-12T02:45:17.444Z,0
2023-05-12T02:46:33.744Z,0
2023-05-12T02:47:49.996Z,0
2023-05-12T02:49:06.303Z,0
2023-05-12T02:50:22.581Z,0
2023-05-12T02:51:38.890Z,0
2023-05-12T02:52:55.173Z,0
2023-05-12T02:54:11.414Z,0
2023-05-12T02:55:26.724Z,0
2023-05-12T02:56:43.048Z,0
2023-05-12T02:57:59.318Z,0
2023-05-12T02:59:15.567Z,0
2023-05-12T03:00:31.883Z,0
2023-05-12T03:01:48.155Z,0
2023-05-12T03:03:04.459Z,0
2023-05-12T03:04:20.759Z,0
2023-05-12T03:05:37.035Z,0
2023-05-12T03:06:53.342Z,0
2023-05-12T03:08:09.657Z,0
2023-05-12T03:09:25.934Z,0
2023-05-12T03:10:42.232Z,0
2023-05-12T03:11:57.486Z,0
2023-05-12T03:13:13.726Z,0
2023-05-12T03:14:29.962Z,0
2023-05-12T03:15:46.247Z,0
2023-05-12T03:17:02.447Z,0
2023-05-12T03:18:18.683Z,0
2023-05-12T03:19:34.940Z,0
2023-05-12T03:20:51.176Z,0
2023-05-12T03:22:07.434Z,0
2023-05-12T03:23:23.673Z,0
2023-05-12T03:24:39.914Z,0
2023-05-12T03:25:56.143Z,0
2023-05-12T03:27:12.384Z,0
2023-05-12T03:28:27.620Z,0
2023-05-12T03:29:43.880Z,0
2023-05-12T03:31:00.136Z,0
2023-05-12T03:32:16.348Z,0
2023-05-12T03:33:32.583Z,0
2023-05-12T03:34:48.852Z,0
2023-05-12T03:36:05.061Z,0
2023-05-12T03:37:21.310Z,0
2023-05-12T03:38:37.587Z,0
2023-05-12T03:39:53.801Z,0
2023-05-12T03:42:26.277Z,0
2023-05-12T03:43:42.515Z,0
2023-05-12T03:44:57.764Z,0
2023-05-12T03:46:14.049Z,0
2023-05-12T03:47:30.254Z,0
2023-05-12T03:48:46.500Z,0
2023-05-12T03:50:02.763Z,0
2023-05-12T03:51:18.980Z,0
2023-05-12T03:52:35.218Z,0
2023-05-12T03:53:51.491Z,0
2023-05-12T03:55:07.733Z,0
2023-05-12T03:56:23.944Z,0
2023-05-12T03:57:40.177Z,0
2023-05-12T03:58:56.415Z,0
2023-05-12T04:00:12.662Z,0
2023-05-12T04:01:27.914Z,0
2023-05-12T04:02:44.189Z,0
2023-05-12T04:04:00.398Z,0
2023-05-12T04:05:16.638Z,0
2023-05-12T04:06:32.871Z,0
2023-05-12T04:07:49.103Z,0
2023-05-12T04:09:05.385Z,0
2023-05-12T04:10:21.630Z,0
2023-05-12T04:11:37.837Z,0
2023-05-12T04:12:54.101Z,0
2023-05-12T04:14:10.317Z,0
2023-05-12T04:15:26.555Z,0
2023-05-12T04:16:42.800Z,0
2023-05-12T04:17:58.050Z,5
2023-05-12T04:19:14.290Z,5
2023-05-12T04:20:30.529Z,5
2023-05-12T04:21:46.778Z,5
2023-05-12T04:23:03.023Z,5
2023-05-12T04:24:19.281Z,5
2023-05-12T04:25:35.501Z,5
2023-05-12T04:26:51.726Z,5
2023-05-12T04:28:07.965Z,5
2023-05-12T04:29:24.222Z,5
2023-05-12T04:30:40.454Z,5
2023-05-12T04:31:56.724Z,5
2023-05-12T04:33:12.935Z,5
2023-05-12T04:34:28.190Z,5
2023-05-12T04:35:44.470Z,5
2023-05-12T04:37:00.671Z,5
2023-05-12T04:38:16.947Z,5
2023-05-12T04:39:33.158Z,5
2023-05-12T04:40:49.423Z,5
2023-05-12T04:42:05.644Z,5
2023-05-12T04:43:21.871Z,5
2023-05-12T04:44:38.122Z,5
2023-05-12T04:45:54.357Z,11
2023-05-12T04:47:10.624Z,11
2023-05-12T04:48:26.864Z,11
2023-05-12T04:49:43.079Z,11
2023-05-12T04:50:58.334Z,11
2023-05-12T04:52:14.611Z,11
2023-05-12T04:53:30.849Z,11
2023-05-12T04:54:47.051Z,11
2023-05-12T04:56:03.298Z,11
2023-05-12T04:57:19.534Z,11
2023-05-12T04:58:35.779Z,11
2023-05-12T04:59:52.008Z,11
2023-05-12T05:01:08.270Z,11
2023-05-12T05:02:24.538Z,11
2023-05-12T05:03:40.745Z,11
2023-05-12T05:04:56.970Z,11
2023-05-12T05:06:13.244Z,11
2023-05-12T05:07:28.485Z,11
2023-05-12T05:08:44.713Z,11
2023-05-12T05:10:00.949Z,11
2023-05-12T05:11:17.198Z,11
2023-05-12T05:12:33.443Z,16
2023-05-12T05:13:49.671Z,16
2023-05-12T05:15:05.949Z,16
2023-05-12T05:16:22.187Z,16
2023-05-12T05:17:38.404Z,16
2023-05-12T05:18:54.642Z,16
2023-05-12T05:20:10.882Z,16
2023-05-12T05:21:27.153Z,16
2023-05-12T05:22:43.369Z,16
2023-05-12T05:23:58.620Z,16
2023-05-12T05:25:14.856Z,16
2023-05-12T05:26:31.087Z,16
2023-05-12T05:27:47.336Z,16
2023-05-12T05:29:03.569Z,16
2023-05-12T05:30:19.808Z,16
2023-05-12T05:31:35.084Z,16
2023-05-12T05:32:51.343Z,16
2023-05-12T05:34:07.581Z,16
2023-05-12T05:35:23.810Z,22
2023-05-12T05:36:40.044Z,22
2023-05-12T05:37:56.286Z,22
2023-05-12T05:39:12.515Z,22
2023-05-12T05:40:28.763Z,22
2023-05-12T05:41:45.012Z,22
2023-05-12T05:43:01.247Z,22
2023-05-12T05:44:17.473Z,22
2023-05-12T05:45:33.715Z,22
2023-05-12T05:46:49.996Z,22
2023-05-12T05:48:05.215Z,22
2023-05-12T05:49:21.453Z,22
2023-05-12T05:50:37.706Z,22
2023-05-12T05:51:53.938Z,22
2023-05-12T05:53:10.171Z,22
2023-05-12T05:54:26.419Z,22
2023-05-12T05:55:42.666Z,22
2023-05-12T05:56:58.929Z,22
2023-05-12T05:58:15.181Z,22
2023-05-12T05:59:31.372Z,22
2023-05-12T06:00:47.614Z,22
2023-05-12T06:02:03.864Z,22
2023-05-12T06:03:20.136Z,22
2023-05-12T06:05:51.607Z,22
2023-05-12T06:07:07.864Z,22
2023-05-12T06:08:24.123Z,28
2023-05-12T06:09:40.323Z,33
2023-05-12T06:10:56.591Z,28
2023-05-12T06:12:12.797Z,28
2023-05-12T06:13:29.047Z,33
2023-05-12T06:14:45.279Z,28
2023-05-12T06:16:01.519Z,39
2023-05-12T06:17:17.794Z,33
2023-05-12T06:18:34.006Z,33
2023-05-12T06:19:50.249Z,39
2023-05-12T06:21:05.499Z,33
2023-05-12T06:22:21.767Z,39
2023-05-12T06:23:37.984Z,45
2023-05-12T06:24:54.216Z,33
2023-05-12T06:26:10.503Z,33
2023-05-12T06:27:26.697Z,33
2023-05-12T06:28:42.944Z,45
2023-05-12T06:29:59.175Z,33
2023-05-12T06:31:15.429Z,45
2023-05-12T06:32:31.664Z,33
2023-05-12T06:33:47.910Z,45
2023-05-12T06:35:04.156Z,39
2023-05-12T06:36:20.391Z,39
2023-05-12T06:37:35.640Z,33
2023-05-12T06:38:51.894Z,39
2023-05-12T06:40:08.116Z,39
2023-05-12T06:41:24.355Z,39
2023-05-12T06:42:40.603Z,39
2023-05-12T06:43:56.843Z,33
2023-05-12T06:45:13.107Z,45
2023-05-12T06:46:29.332Z,28
2023-05-12T06:47:45.605Z,33
2023-05-12T06:49:01.817Z,45
2023-05-12T06:50:18.047Z,22
2023-05-12T06:51:34.291Z,33
2023-05-12T06:52:50.519Z,28
2023-05-12T06:54:05.781Z,28
2023-05-12T06:55:22.065Z,33
2023-05-12T06:56:38.289Z,28
2023-05-12T06:57:54.501Z,22
2023-05-12T06:59:10.735Z,28
2023-05-12T07:00:26.976Z,28
2023-05-12T07:01:43.229Z,22
2023-05-12T07:02:59.462Z,33
2023-05-12T07:04:15.710Z,33
2023-05-12T07:05:31.942Z,45
2023-05-12T07:06:48.188Z,39
2023-05-12T07:08:04.448Z,33
2023-05-12T07:09:20.671Z,33
2023-05-12T07:10:35.929Z,33
2023-05-12T07:11:52.158Z,33
2023-05-12T07:13:08.400Z,33
2023-05-12T07:14:24.670Z,39
2023-05-12T07:15:40.888Z,50
2023-05-12T07:16:57.132Z,33
2023-05-12T07:18:13.364Z,28
2023-05-12T07:19:29.610Z,33
2023-05-12T07:20:45.857Z,28
2023-05-12T07:22:02.085Z,22
2023-05-12T07:23:18.323Z,22
2023-05-12T07:24:34.569Z,28
2023-05-12T07:25:50.841Z,33
2023-05-12T07:27:06.053Z,45
2023-05-12T07:28:22.303Z,50
2023-05-12T07:29:38.554Z,50
2023-05-12T07:30:54.778Z,45
2023-05-12T07:32:11.034Z,45
2023-05-12T07:33:27.259Z,45
2023-05-12T07:34:43.507Z,45
2023-05-12T07:35:59.739Z,39
2023-05-12T07:37:15.990Z,39
2023-05-12T07:38:32.226Z,45
2023-05-12T07:39:48.457Z,45
2023-05-12T07:41:04.737Z,45
2023-05-12T07:42:20.940Z,45
2023-05-12T07:43:36.213Z,45
2023-05-12T07:44:52.446Z,45
2023-05-12T07:46:08.674Z,45
2023-05-12T07:47:24.920Z,45
2023-05-12T07:48:41.189Z,45
2023-05-12T07:49:57.409Z,45
2023-05-12T07:51:13.680Z,45
2023-05-12T07:52:29.888Z,45
2023-05-12T07:53:46.118Z,45
2023-05-12T07:55:02.373Z,45
2023-05-12T07:56:18.610Z,45
2023-05-12T07:57:34.847Z,45
2023-05-12T07:58:51.092Z,45
2023-05-12T08:00:06.348Z,45
2023-05-12T08:01:22.592Z,50
2023-05-12T08:02:38.813Z,50
2023-05-12T08:03:55.059Z,50
2023-05-12T08:05:11.301Z,50
2023-05-12T08:07:43.788Z,50
2023-05-12T08:09:00.023Z,50
2023-05-12T08:10:16.274Z,50
2023-05-12T08:11:32.514Z,50
2023-05-12T08:12:48.742Z,50
2023-05-12T08:14:04.978Z,50
2023-05-12T08:15:21.221Z,50
2023-05-12T08:16:36.475Z,50
2023-05-12T08:17:52.749Z,50
2023-05-12T08:19:08.987Z,50
2023-05-12T08:20:25.201Z,50
2023-05-12T08:21:41.437Z,50
2023-05-12T08:22:57.690Z,50
2023-05-12T08:24:13.919Z,50
2023-05-12T08:25:30.154Z,50
2023-05-12T08:26:46.405Z,50
2023-05-12T08:28:02.634Z,50
2023-05-12T08:29:18.888Z,50
2023-05-12T08:30:35.127Z,50
2023-05-12T08:31:51.368Z,50
2023-05-12T08:33:06.613Z,50
2023-05-12T08:34:22.865Z,50
2023-05-12T08:35:39.102Z,50
2023-05-12T08:36:55.343Z,50
2023-05-12T08:38:11.579Z,50
2023-05-12T08:39:27.858Z,50
2023-05-12T08:40:44.060Z,50
2023-05-12T08:42:00.298Z,50
2023-05-12T08:43:16.571Z,56
2023-05-12T08:44:32.816Z,56
2023-05-12T08:45:49.023Z,56
2023-05-12T08:47:05.252Z,56
2023-05-12T08:48:21.502Z,56
2023-05-12T08:49:36.758Z,56
2023-05-12T08:50:52.986Z,56
2023-05-12T08:52:09.274Z,56
2023-05-12T08:53:25.488Z,56
2023-05-12T08:54:41.707Z,56
2023-05-12T08:55:57.957Z,56
2023-05-12T08:57:14.194Z,56
2023-05-12T08:58:30.461Z,56
2023-05-12T08:59:46.667Z,56
2023-05-12T09:01:02.951Z,56
2023-05-12T09:02:19.164Z,56
2023-05-12T09:03:35.391Z,56
2023-05-12T09:04:51.634Z,61
2023-05-12T09:06:06.887Z,61
2023-05-12T09:07:23.136Z,61
2023-05-12T09:08:39.379Z,61
2023-05-12T09:09:55.608Z,61
2023-05-12T09:11:11.863Z,61
2023-05-12T09:12:28.092Z,61
2023-05-12T09:13:44.363Z,67
2023-05-12T09:15:00.573Z,61
2023-05-12T09:16:16.816Z,61
2023-05-12T09:17:33.086Z,61
2023-05-12T09:18:49.297Z,61
2023-05-12T09:20:05.536Z,61
2023-05-12T09:21:21.776Z,67
2023-05-12T09:22:37.040Z,61
2023-05-12T09:23:53.317Z,61
2023-05-12T09:25:09.520Z,67
2023-05-12T09:26:25.755Z,61
2023-05-12T09:27:42.000Z,61
2023-05-12T09:28:58.238Z,61
2023-05-12T09:30:14.480Z,61
2023-05-12T09:31:30.723Z,61
2023-05-12T09:32:46.946Z,61
2023-05-12T09:34:03.187Z,61
2023-05-12T09:35:19.426Z,61
2023-05-12T09:36:35.682Z,61
2023-05-12T09:37:51.954Z,61
2023-05-12T09:39:07.179Z,61
2023-05-12T09:40:23.404Z,61
2023-05-12T09:41:39.649Z,61
2023-05-12T09:42:55.889Z,61
2023-05-12T09:44:12.125Z,61
2023-05-12T09:45:28.362Z,61
2023-05-12T09:46:43.642Z,61
2023-05-12T09:47:59.876Z,61
2023-05-12T09:49:16.116Z,61
2023-05-12T09:50:32.348Z,61
2023-05-12T09:51:48.601Z,61
2023-05-12T09:53:04.824Z,61
2023-05-12T09:54:21.106Z,61
2023-05-12T09:55:37.307Z,61
2023-05-12T09:56:53.546Z,61
2023-05-12T09:58:09.795Z,61
2023-05-12T09:59:26.079Z,67
2023-05-12T10:00:42.270Z,61
2023-05-12T10:01:58.508Z,67
2023-05-12T10:03:13.777Z,67
2023-05-12T10:04:30.013Z,67
2023-05-12T10:05:46.242Z,67
2023-05-12T10:07:02.487Z,67
2023-05-12T10:08:18.728Z,67
2023-05-12T10:09:34.968Z,67
2023-05-12T10:10:51.213Z,67
2023-05-12T10:12:07.441Z,67
2023-05-12T10:13:23.682Z,67
2023-05-12T10:14:39.927Z,67
2023-05-12T10:15:56.162Z,67
2023-05-12T10:17:12.404Z,73
2023-05-12T10:18:28.657Z,67
2023-05-12T10:19:43.912Z,67
2023-05-12T10:21:00.154Z,73
2023-05-12T10:22:16.382Z,67
2023-05-12T10:23:32.630Z,67
2023-05-12T10:24:48.874Z,67
2023-05-12T10:26:05.110Z,67
2023-05-12T10:27:21.344Z,67
2023-05-12T10:28:37.580Z,67
2023-05-12T10:29:53.826Z,67
2023-05-12T10:31:10.067Z,67
2023-05-12T10:32:26.317Z,67
2023-05-12T10:33:42.556Z,67
2023-05-12T10:34:58.799Z,67
2023-05-12T10:36:14.043Z,67
2023-05-12T10:37:30.289Z,67
2023-05-12T10:38:46.518Z,67
2023-05-12T10:40:02.764Z,67
2023-05-12T10:41:19.013Z,67
2023-05-12T10:42:35.248Z,67
2023-05-12T10:43:51.494Z,67
2023-05-12T10:45:07.723Z,67
2023-05-12T10:46:23.995Z,67
2023-05-12T10:47:40.218Z,67
2023-05-12T10:48:56.486Z,67
2023-05-12T10:50:12.694Z,67
2023-05-12T10:51:28.961Z,67
2023-05-12T10:52:44.177Z,67
2023-05-12T10:54:00.434Z,67
2023-05-12T10:55:16.654Z,67
2023-05-12T10:56:32.901Z,67
2023-05-12T10:57:49.134Z,67
2023-05-12T10:59:05.380Z,67
2023-05-12T11:00:21.660Z,67
2023-05-12T11:01:37.857Z,67
2023-05-12T11:02:54.105Z,67
2023-05-12T11:04:10.338Z,67
2023-05-12T11:05:26.596Z,67
2023-05-12T11:06:42.819Z,67
2023-05-12T11:07:59.066Z,67
2023-05-12T11:09:14.330Z,67
2023-05-12T11:10:30.570Z,67
2023-05-12T11:11:46.805Z,67
2023-05-12T11:13:03.041Z,73
2023-05-12T11:14:19.283Z,73
2023-05-12T11:15:35.517Z,78
2023-05-12T11:16:51.771Z,33
2023-05-12T11:18:08.000Z,45
2023-05-12T11:19:24.242Z,67
2023-05-12T11:20:40.492Z,67
2023-05-12T11:21:56.765Z,67
2023-05-12T11:23:12.978Z,45
2023-05-12T11:24:29.207Z,67
2023-05-12T11:25:44.472Z,67
2023-05-12T11:27:00.705Z,39
2023-05-12T11:28:16.948Z,22
2023-05-12T11:29:33.183Z,22
2023-05-12T11:30:49.426Z,22
2023-05-12T11:32:05.675Z,67
2023-05-12T11:33:21.908Z,61
2023-05-12T11:34:38.197Z,67
2023-05-12T11:35:54.402Z,67
2023-05-12T11:37:10.641Z,28
2023-05-12T11:38:26.884Z,28
2023-05-12T11:39:43.108Z,28
2023-05-12T11:40:59.346Z,33
2023-05-12T11:42:14.603Z,39
2023-05-12T11:43:30.857Z,33
2023-05-12T11:44:47.096Z,73
2023-05-12T11:46:03.328Z,33
2023-05-12T11:47:19.582Z,67
2023-05-12T11:48:35.849Z,28
2023-05-12T11:49:52.053Z,28
2023-05-12T11:51:08.291Z,28
2023-05-12T11:52:24.527Z,22
2023-05-12T11:53:40.769Z,22
2023-05-12T11:54:57.022Z,22
2023-05-12T11:56:13.264Z,56
2023-05-12T11:57:29.505Z,50
2023-05-12T11:58:44.765Z,56
2023-05-12T12:00:01.010Z,56
2023-05-12T12:01:17.273Z,39
2023-05-12T12:02:33.474Z,33
2023-05-12T12:03:49.751Z,56
2023-05-12T12:05:05.960Z,67
2023-05-12T12:06:22.204Z,39
2023-05-12T12:07:38.452Z,61
2023-05-12T12:08:54.680Z,39
2023-05-12T12:10:10.915Z,39
2023-05-12T12:11:27.172Z,67
2023-05-12T12:12:43.412Z,61
2023-05-12T12:13:59.643Z,67
2023-05-12T12:15:14.938Z,61
2023-05-12T12:16:31.139Z,73
2023-05-12T12:17:47.420Z,50
2023-05-12T12:19:03.630Z,45
2023-05-12T12:20:19.861Z,45
2023-05-12T12:21:36.096Z,45
2023-05-12T12:22:52.336Z,50
2023-05-12T12:24:08.582Z,50
2023-05-12T12:25:24.859Z,50
2023-05-12T12:26:41.106Z,50
2023-05-12T12:27:57.300Z,50
2023-05-12T12:29:13.542Z,50
2023-05-12T12:30:29.781Z,50
2023-05-12T12:31:45.039Z,50
2023-05-12T12:33:01.288Z,50
2023-05-12T12:34:17.511Z,50
2023-05-12T12:35:33.000Z,50
2023-05-12T12:36:50.002Z,45
2023-05-12T12:38:06.247Z,45
2023-05-12T12:39:22.489Z,45
2023-05-12T12:40:38.724Z,45
2023-05-12T12:41:54.954Z,45
2023-05-12T12:43:11.203Z,45
2023-05-12T12:44:27.435Z,45
2023-05-12T12:45:43.673Z,50
2023-05-12T12:46:59.923Z,50
2023-05-12T12:48:15.213Z,50
2023-05-12T12:49:31.000Z,50
2023-05-12T12:50:47.657Z,56
2023-05-12T12:52:03.904Z,50
2023-05-12T12:53:20.135Z,45
2023-05-12T12:54:36.385Z,45
2023-05-12T12:55:52.621Z,45
2023-05-12T12:57:08.864Z,45
2023-05-12T12:58:25.096Z,45
2023-05-12T12:59:41.344Z,50
2023-05-12T13:00:57.577Z,50
2023-05-12T13:02:13.867Z,45
2023-05-12T13:03:30.095Z,45
2023-05-12T13:04:45.323Z,39
2023-05-12T13:06:01.562Z,39
2023-05-12T13:07:17.790Z,39
2023-05-12T13:08:34.043Z,39
2023-05-12T13:09:50.275Z,39
2023-05-12T13:11:06.556Z,39
2023-05-12T13:12:22.763Z,39
2023-05-12T13:13:39.011Z,39
2023-05-12T13:14:55.245Z,39
2023-05-12T13:16:11.487Z,39
2023-05-12T13:17:27.716Z,39
2023-05-12T13:18:44.005Z,45
2023-05-12T13:20:00.194Z,45
2023-05-12T13:21:15.465Z,45
2023-05-12T13:22:31.701Z,45
2023-05-12T13:23:47.971Z,45
2023-05-12T13:25:04.186Z,45
2023-05-12T13:26:20.424Z,45
2023-05-12T13:27:36.660Z,45
2023-05-12T13:28:52.900Z,45
2023-05-12T13:30:09.140Z,39
2023-05-12T13:31:25.373Z,39
2023-05-12T13:32:41.667Z,50
2023-05-12T13:33:57.899Z,45
2023-05-12T13:35:14.098Z,45
2023-05-12T13:36:30.336Z,45
2023-05-12T13:39:01.869Z,33
2023-05-12T13:40:18.076Z,45
2023-05-12T13:41:34.310Z,50
2023-05-12T13:42:50.569Z,50
2023-05-12T13:44:06.802Z,50
2023-05-12T13:45:23.030Z,56
2023-05-12T13:46:39.309Z,56
2023-05-12T13:47:55.517Z,45
2023-05-12T13:49:11.751Z,39
2023-05-12T13:50:27.996Z,28
2023-05-12T13:51:44.247Z,28
2023-05-12T13:53:00.489Z,28
2023-05-12T13:54:15.739Z,28
2023-05-12T13:55:32.007Z,28
2023-05-12T13:56:48.251Z,33
2023-05-12T13:58:04.455Z,28
2023-05-12T13:59:20.701Z,28
2023-05-12T14:00:36.927Z,22
2023-05-12T14:01:52.206Z,22
2023-05-12T14:03:08.434Z,22
2023-05-12T14:04:24.671Z,28
2023-05-12T14:05:40.929Z,28
2023-05-12T14:06:57.163Z,28
2023-05-12T14:08:13.433Z,33
2023-05-12T14:09:29.637Z,39
2023-05-12T14:10:45.872Z,39
2023-05-12T14:12:02.127Z,45
2023-05-12T14:13:18.352Z,39
2023-05-12T14:14:34.592Z,39
2023-05-12T14:15:50.834Z,45
2023-05-12T14:17:07.077Z,45
2023-05-12T14:18:22.345Z,50
2023-05-12T14:19:38.586Z,50
2023-05-12T14:20:54.816Z,45
2023-05-12T14:22:11.060Z,95
2023-05-12T14:23:27.296Z,50
2023-05-12T14:24:43.540Z,39
2023-05-12T14:25:59.781Z,28
2023-05-12T14:27:16.016Z,28
2023-05-12T14:28:32.249Z,28
2023-05-12T14:29:48.506Z,28
2023-05-12T14:31:04.741Z,28
2023-05-12T14:32:20.989Z,28
2023-05-12T14:33:37.218Z,28
2023-05-12T14:34:52.476Z,28
2023-05-12T14:36:08.715Z,28
2023-05-12T14:37:24.950Z,28
2023-05-12T14:38:41.193Z,28
2023-05-12T14:39:57.470Z,28
2023-05-12T14:41:13.677Z,28
2023-05-12T14:42:29.927Z,22
2023-05-12T14:43:46.151Z,22
2023-05-12T14:45:02.397Z,22
2023-05-12T14:46:18.638Z,22
2023-05-12T14:47:34.886Z,22
2023-05-12T14:48:51.117Z,28
2023-05-12T14:50:07.363Z,28
2023-05-12T14:51:22.617Z,28
2023-05-12T14:52:38.859Z,33
2023-05-12T14:53:55.091Z,28
2023-05-12T14:55:11.327Z,28
2023-05-12T14:56:27.567Z,22
2023-05-12T14:57:43.812Z,22
2023-05-12T14:59:00.054Z,22
2023-05-12T15:00:16.336Z,22
2023-05-12T15:01:32.532Z,22
2023-05-12T15:02:48.774Z,22
2023-05-12T15:04:05.047Z,33
2023-05-12T15:05:21.248Z,22
2023-05-12T15:06:37.499Z,28
2023-05-12T15:07:52.753Z,28
2023-05-12T15:09:08.989Z,28
2023-05-12T15:10:25.232Z,33
2023-05-12T15:11:41.512Z,39
2023-05-12T15:12:57.716Z,39
2023-05-12T15:14:13.948Z,45
2023-05-12T15:15:30.235Z,45
2023-05-12T15:16:46.439Z,56
2023-05-12T15:18:02.678Z,45
2023-05-12T15:19:18.949Z,45
2023-05-12T15:20:35.164Z,45
2023-05-12T15:21:51.401Z,123
2023-05-12T15:23:07.644Z,393
2023-05-12T15:24:22.911Z,146
2023-05-12T15:25:39.147Z,39
2023-05-12T15:26:55.383Z,39
2023-05-12T15:28:11.618Z,39
2023-05-12T15:29:27.872Z,28
2023-05-12T15:30:44.111Z,33
2023-05-12T15:32:00.348Z,33
2023-05-12T15:33:16.634Z,39
2023-05-12T15:34:32.864Z,39
2023-05-12T15:35:49.069Z,39
2023-05-12T15:37:05.312Z,39
2023-05-12T15:38:21.551Z,39
2023-05-12T15:39:37.776Z,33
2023-05-12T15:40:53.048Z,33
2023-05-12T15:42:09.315Z,28
2023-05-12T15:43:25.524Z,28
2023-05-12T15:44:41.751Z,28
2023-05-12T15:45:58.002Z,22
2023-05-12T15:47:14.235Z,22
2023-05-12T15:48:30.474Z,22
2023-05-12T15:49:46.713Z,22
2023-05-12T15:51:02.951Z,16
2023-05-12T15:52:19.201Z,16
2023-05-12T15:53:35.490Z,22
2023-05-12T15:54:51.000Z,22
2023-05-12T15:56:07.932Z,22
2023-05-12T15:57:23.217Z,16
2023-05-12T15:58:39.415Z,16
2023-05-12T15:59:55.660Z,16
2023-05-12T16:01:11.908Z,16
2023-05-12T16:02:28.134Z,16
2023-05-12T16:03:44.426Z,16
2023-05-12T16:05:00.655Z,16
2023-05-12T16:06:16.851Z,16
2023-05-12T16:07:33.103Z,22
2023-05-12T16:08:49.350Z,28
2023-05-12T16:10:05.572Z,28
2023-05-12T16:11:21.829Z,28
2023-05-12T16:12:38.071Z,28
2023-05-12T16:13:53.315Z,28
2023-05-12T16:15:09.556Z,28
2023-05-12T16:16:25.792Z,28
2023-05-12T16:17:42.072Z,22
2023-05-12T16:18:58.273Z,22
2023-05-12T16:20:14.559Z,22
2023-05-12T16:21:30.761Z,22
2023-05-12T16:22:47.004Z,28
2023-05-12T16:24:03.236Z,28
2023-05-12T16:25:19.471Z,28
2023-05-12T16:26:35.708Z,28
2023-05-12T16:27:51.957Z,28
2023-05-12T16:29:08.203Z,33
2023-05-12T16:30:23.448Z,33
2023-05-12T16:31:39.735Z,28
2023-05-12T16:32:55.942Z,22
2023-05-12T16:34:12.184Z,22
2023-05-12T16:35:28.418Z,22
2023-05-12T16:36:44.647Z,22
2023-05-12T16:38:00.894Z,22
2023-05-12T16:39:17.133Z,28
2023-05-12T16:40:33.368Z,28
2023-05-12T16:41:49.616Z,33
2023-05-12T16:43:05.856Z,28
2023-05-12T16:44:22.095Z,28
2023-05-12T16:45:38.326Z,28
2023-05-12T16:46:53.595Z,28
2023-05-12T16:48:09.843Z,28
2023-05-12T16:49:26.083Z,28
2023-05-12T16:50:42.312Z,28
2023-05-12T16:51:58.554Z,28
2023-05-12T16:53:14.788Z,28
2023-05-12T16:54:31.082Z,28
2023-05-12T16:55:47.275Z,22
2023-05-12T16:57:03.521Z,16
2023-05-12T16:58:19.757Z,11
2023-05-12T16:59:35.999Z,11
2023-05-12T17:00:52.245Z,5
2023-05-12T17:02:08.470Z,5
2023-05-12T17:03:23.742Z,5
2023-05-12T17:04:39.966Z,5
2023-05-12T17:05:56.208Z,5
2023-05-12T17:07:12.450Z,0
2023-05-12T17:08:28.699Z,0
2023-05-12T17:09:44.936Z,0
2023-05-12T17:11:01.182Z,0
2023-05-12T17:12:17.406Z,0
2023-05-12T17:13:33.659Z,0
2023-05-12T17:14:49.896Z,0
2023-05-12T17:16:06.128Z,0
2023-05-12T17:17:22.373Z,0
2023-05-12T17:18:38.612Z,0
2023-05-12T17:19:53.864Z,0
2023-05-12T17:21:10.101Z,0
2023-05-12T17:22:26.384Z,0
2023-05-12T17:23:42.596Z,0
2023-05-12T17:24:58.835Z,0
2023-05-12T17:26:15.075Z,0
2023-05-12T17:27:31.308Z,0
2023-05-12T17:28:47.549Z,0
2023-05-12T17:30:03.791Z,0
2023-05-12T17:31:20.038Z,5
2023-05-12T17:32:36.265Z,5
2023-05-12T17:33:52.507Z,5
2023-05-12T17:35:08.754Z,5
2023-05-12T17:36:24.011Z,5
2023-05-12T17:37:40.251Z,5
2023-05-12T17:38:56.540Z,5
2023-05-12T17:40:12.717Z,5
2023-05-12T17:41:28.975Z,5
2023-05-12T17:42:45.199Z,5
2023-05-12T17:44:01.455Z,5
2023-05-12T17:45:17.682Z,5
2023-05-12T17:46:33.922Z,0
2023-05-12T17:47:50.162Z,0
2023-05-12T17:49:06.418Z,0
2023-05-12T17:50:22.657Z,0
2023-05-12T17:51:38.892Z,0
2023-05-12T17:52:54.137Z,0
2023-05-12T17:54:10.424Z,0
2023-05-12T17:55:26.675Z,0
2023-05-12T17:56:42.863Z,0
2023-05-12T17:57:59.107Z,0
2023-05-12T17:59:15.391Z,0
2023-05-12T18:00:31.582Z,0
2023-05-12T18:01:47.826Z,0
2023-05-12T18:03:04.065Z,0
2023-05-12T18:04:20.303Z,0
2023-05-12T18:05:36.547Z,0
2023-05-12T18:06:52.829Z,0
2023-05-12T18:08:09.028Z,0
2023-05-12T18:09:24.294Z,0
2023-05-12T18:10:40.569Z,0
2023-05-12T18:11:56.761Z,0
2023-05-12T18:13:13.044Z,0
2023-05-12T18:14:29.242Z,0
2023-05-12T18:15:45.490Z,0
2023-05-12T18:17:00.756Z,0
2023-05-12T18:18:16.984Z,0
2023-05-12T18:19:33.228Z,0
2023-05-12T18:20:49.468Z,0
2023-05-12T18:22:05.756Z,0
2023-05-12T18:23:21.995Z,0